Time;durP1;ratioP1;P1;durP2;ratioP2;P2;SDS_P1;SDS_P2;PMS_P1;PMS_P2;Temp;Humidity;BMP_temperature;BMP_pressure;BME280_temperature;BME280_humidity;BME280_pressure;Samples;Min_cycle;Max_cycle;Signal;HPM_P1;HPM_P2
2021/08/29 00:00:25;;;;;;;;;;;;;;;11.52;86.74;97039.47;30001;982;1862;-66
2021/08/29 00:00:56;;;;;;;;;;;;;;;11.50;86.61;97039.78;30001;982;1871;-65
2021/08/29 00:01:27;;;;;;;;;;;;;;;11.51;86.34;97046.03;30001;983;1879;-66
2021/08/29 00:01:57;;;;;;;;;;;;;;;11.50;86.38;97039.78;30001;983;1857;-65
2021/08/29 00:02:28;;;;;;;;;;;;;;;11.51;86.28;97037.88;30001;983;1875;-65
2021/08/29 00:03:00;;;;;;;;;;;;;;;11.51;86.54;97040.59;30001;983;1875;-66
2021/08/29 00:03:30;;;;;;;;;;;;;;;11.50;86.56;97044.41;30001;983;1879;-66
2021/08/29 00:04:01;;;;;;;;;;;;;;;11.50;86.66;97036.25;30001;983;1875;-66
2021/08/29 00:04:32;;;;;;;;;;;;;;;11.50;86.58;97038.97;30001;983;1880;-66
2021/08/29 00:05:04;;;;;;;;;;;;;;;11.51;86.37;97040.59;30001;983;1875;-64
2021/08/29 00:05:35;;;;;;;;;;;;;;;11.50;86.24;97033.53;30001;983;1880;-65
2021/08/29 00:06:06;;;;;;;;;;;;;;;11.52;86.35;97036.75;30001;983;1858;-63
2021/08/29 00:06:36;;;;;;;;;;;;;;;11.53;86.15;97032.94;30001;982;1875;-64
2021/08/29 00:07:07;;;;;;;;;;;;;;;11.55;86.34;97033.47;30001;969;1889;-67
2021/08/29 00:07:38;;;;;;;;;;;;;;;11.55;86.14;97031.56;30001;982;1880;-69
2021/08/29 00:08:09;;;;;;;;;;;;;;;11.56;85.85;97032.34;30001;985;1876;-65
2021/08/29 00:08:40;;;;;;;;;;;;;;;11.58;85.91;97022.81;30001;983;1879;-65
2021/08/29 00:09:10;;;;;;;;;;;;;;;11.59;85.66;97031.78;30001;983;1875;-64
2021/08/29 00:09:41;;;;;;;;;;;;;;;11.59;85.81;97032.56;30001;983;1879;-65
2021/08/29 00:10:12;;;;;;;;;;;;;;;11.59;85.88;97032.56;30001;983;1875;-65
2021/08/29 00:10:43;;;;;;;;;;;;;;;11.60;85.54;97033.38;30001;983;1879;-65
2021/08/29 00:11:14;;;;;;;;;;;;;;;11.58;85.82;97025.53;30001;983;1858;-65
2021/08/29 00:11:45;;;;;;;;;;;;;;;11.59;85.88;97029.84;30001;983;1783;-66
2021/08/29 00:12:15;;;;;;;;;;;;;;;11.59;85.48;97029.06;30001;983;1875;-65
2021/08/29 00:12:46;;;;;;;;;;;;;;;11.59;85.54;97027.13;30001;983;1880;-67
2021/08/29 00:13:17;;;;;;;;;;;;;;;11.60;85.65;97025.22;30001;983;1858;-66
2021/08/29 00:13:48;;;;;;;;;;;;;;;11.60;85.82;97027.94;30001;982;1875;-65
2021/08/29 00:14:19;;;;;;;;;;;;;;;11.59;85.91;97027.13;30001;982;1875;-65
2021/08/29 00:14:50;;;;;;;;;;;;;;;11.59;86.03;97027.13;30001;964;1813;-64
2021/08/29 00:15:21;;;;;;;;;;;;;;;11.57;86.18;97028.53;30001;982;1876;-65
2021/08/29 00:15:52;;;;;;;;;;;;;;;11.58;85.98;97022.00;30001;982;1862;-65
2021/08/29 00:16:23;;;;;;;;;;;;;;;11.57;86.33;97025.81;30001;983;1870;-66
2021/08/29 00:16:54;;;;;;;;;;;;;;;11.56;85.97;97029.63;30001;983;1862;-66
2021/08/29 00:17:25;;;;;;;;;;;;;;;11.56;86.16;97032.34;30001;983;1871;-64
2021/08/29 00:17:56;;;;;;;;;;;;;;;11.58;86.11;97033.69;30001;983;1879;-63
2021/08/29 00:18:26;;;;;;;;;;;;;;;11.59;85.67;97018.19;30001;983;1875;-63
2021/08/29 00:18:57;;;;;;;;;;;;;;;11.60;85.88;97022.50;30001;983;1879;-65
2021/08/29 00:19:29;;;;;;;;;;;;;;;11.59;85.54;97015.47;30001;983;1784;-64
2021/08/29 00:19:59;;;;;;;;;;;;;;;11.61;85.77;97029.56;30001;983;1880;-66
2021/08/29 00:20:31;;;;;;;;;;;;;;;11.61;85.85;97021.41;30001;983;1875;-66
2021/08/29 00:21:02;;;;;;;;;;;;;;;11.62;85.58;97020.31;30001;983;1880;-65
2021/08/29 00:21:33;;;;;;;;;;;;;;;11.63;85.74;97032.78;30001;982;1875;-65
2021/08/29 00:22:04;;;;;;;;;;;;;;;11.64;85.78;97018.09;30001;982;1862;-66
2021/08/29 00:22:35;;;;;;;;;;;;;;;11.64;85.82;97023.53;30001;982;1871;-66
2021/08/29 00:23:05;;;;;;;;;;;;;;;11.64;85.67;97021.63;30001;964;1898;-65
2021/08/29 00:23:40;;;;;;;;;;;;;;;11.64;85.47;97024.34;30001;982;1876;-64
2021/08/29 00:24:11;;;;;;;;;;;;;;;11.65;85.32;97025.16;30001;983;1879;-65
2021/08/29 00:24:42;;;;;;;;;;;;;;;11.67;85.83;97025.66;30001;975;1883;-63
2021/08/29 00:25:13;;;;;;;;;;;;;;;11.66;85.75;97021.34;30001;983;1879;-66
2021/08/29 00:25:44;;;;;;;;;;;;;;;11.66;86.00;97015.91;30001;983;1875;-66
2021/08/29 00:26:14;;;;;;;;;;;;;;;11.67;85.93;97020.22;30001;983;1879;-66
2021/08/29 00:26:45;;;;;;;;;;;;;;;11.66;85.51;97016.72;30001;983;1875;-66
2021/08/29 00:27:16;;;;;;;;;;;;;;;11.68;85.46;97030.00;30001;983;1862;-65
2021/08/29 00:27:47;;;;;;;;;;;;;;;11.68;85.76;97019.94;30001;983;1871;-67
2021/08/29 00:28:18;;;;;;;;;;;;;;;11.68;85.58;97030.81;30001;983;1862;-65
2021/08/29 00:28:49;;;;;;;;;;;;;;;11.68;85.81;97030.00;30001;982;1743;-66
2021/08/29 00:29:20;;;;;;;;;;;;;;;11.68;85.54;97019.13;30001;982;1880;-65
2021/08/29 00:29:51;;;;;;;;;;;;;;;11.69;85.68;97026.19;30001;982;1876;-57
2021/08/29 00:30:22;;;;;;;;;;;;;;;11.69;85.65;97020.75;30001;982;1880;-68
2021/08/29 00:30:53;;;;;;;;;;;;;;;11.70;85.50;97027.78;30001;982;1858;-66
2021/08/29 00:31:24;;;;;;;;;;;;;;;11.72;85.30;97025.59;30001;983;1875;-63
2021/08/29 00:31:55;;;;;;;;;;;;;;;11.72;85.30;97020.97;30001;983;1875;-66
2021/08/29 00:32:25;;;;;;;;;;;;;;;11.73;85.24;97027.22;30001;983;1879;-65
2021/08/29 00:32:56;;;;;;;;;;;;;;;11.73;85.51;97027.22;30001;983;1875;-63
2021/08/29 00:33:27;;;;;;;;;;;;;;;11.74;85.10;97026.91;30001;983;1879;-64
2021/08/29 00:33:58;;;;;;;;;;;;;;;11.75;85.48;97019.56;30001;983;1875;-64
2021/08/29 00:34:29;;;;;;;;;;;;;;;11.75;85.38;97025.81;30001;983;1879;-66
2021/08/29 00:35:00;;;;;;;;;;;;;;;11.76;85.63;97026.63;30001;983;1875;-65
2021/08/29 00:35:33;;;;;;;;;;;;;;;11.76;85.42;97018.47;30001;982;1880;-65
2021/08/29 00:36:04;;;;;;;;;;;;;;;11.76;85.59;97021.19;30001;982;1858;-65
2021/08/29 00:36:35;;;;;;;;;;;;;;;11.78;85.07;97020.91;30001;982;1875;-65
2021/08/29 00:37:06;;;;;;;;;;;;;;;11.78;85.12;97021.72;30001;982;1875;-66
2021/08/29 00:37:37;;;;;;;;;;;;;;;11.79;85.06;97017.88;30001;973;1889;-63
2021/08/29 00:38:08;;;;;;;;;;;;;;;11.81;84.69;97021.09;30001;982;1876;-64
2021/08/29 00:38:39;;;;;;;;;;;;;;;11.79;84.84;97019.78;30001;982;1880;-64
2021/08/29 00:39:10;;;;;;;;;;;;;;;11.78;85.11;97019.00;30001;983;1875;-65
2021/08/29 00:39:40;;;;;;;;;;;;;;;11.78;84.79;97013.56;30001;983;1879;-65
2021/08/29 00:40:12;;;;;;;;;;;;;;;11.79;85.50;97020.59;30001;983;1875;-66
2021/08/29 00:40:43;;;;;;;;;;;;;;;11.80;85.41;97026.84;30001;983;1879;-66
2021/08/29 00:41:14;;;;;;;;;;;;;;;11.80;84.93;97024.12;30001;972;1877;-65
2021/08/29 00:41:45;;;;;;;;;;;;;;;11.80;85.15;97019.47;30001;983;1875;-64
2021/08/29 00:42:16;;;;;;;;;;;;;;;11.81;85.18;97023.00;30001;983;1875;-63
2021/08/29 00:42:48;;;;;;;;;;;;;;;11.84;84.48;97015.06;30001;983;1880;-66
2021/08/29 00:43:20;;;;;;;;;;;;;;;11.86;84.43;97022.94;30001;982;1875;-65
2021/08/29 00:43:50;;;;;;;;;;;;;;;11.86;84.36;97023.75;30001;982;1880;-66
2021/08/29 00:44:21;;;;;;;;;;;;;;;11.85;84.88;97022.13;30001;982;1833;-58
2021/08/29 00:44:53;;;;;;;;;;;;;;;11.84;84.68;97020.50;30001;982;1880;-64
2021/08/29 00:45:26;;;;;;;;;;;;;;;11.84;84.54;97017.78;30001;982;1858;-64
2021/08/29 00:45:58;;;;;;;;;;;;;;;11.84;84.73;97017.78;30001;982;1858;-64
2021/08/29 00:46:29;;;;;;;;;;;;;;;11.83;84.83;97024.34;30001;983;1875;-63
2021/08/29 00:46:59;;;;;;;;;;;;;;;11.83;84.52;97021.63;30001;983;1879;-66
2021/08/29 00:47:31;;;;;;;;;;;;;;;11.82;84.70;97020.00;30001;983;1875;-64
2021/08/29 00:48:05;;;;;;;;;;;;;;;11.82;84.76;97016.47;30001;983;1879;-66
2021/08/29 00:48:36;;;;;;;;;;;;;;;11.81;84.66;97018.38;30001;983;1875;-66
2021/08/29 00:49:09;;;;;;;;;;;;;;;11.82;84.67;97024.62;30001;983;1880;-65
2021/08/29 00:49:40;;;;;;;;;;;;;;;11.84;84.36;97020.50;30001;983;1875;-65
2021/08/29 00:50:11;;;;;;;;;;;;;;;11.85;83.93;97013.97;30001;983;1880;-63
2021/08/29 00:50:44;;;;;;;;;;;;;;;11.85;84.28;97016.69;30001;982;1875;-66
2021/08/29 00:51:15;;;;;;;;;;;;;;;11.84;83.98;97017.78;30001;982;1862;-65
2021/08/29 00:51:58;;;;;;;;;;;;;;;11.84;84.03;97016.97;30001;982;1871;-65
2021/08/29 00:52:30;;;;;;;;;;;;;;;11.83;84.55;97018.91;30001;982;1880;-65
2021/08/29 00:53:05;;;;;;;;;;;;;;;11.83;84.84;97018.91;30001;982;1876;-66
2021/08/29 00:53:35;;;;;;;;;;;;;;;11.82;84.65;97017.28;30001;982;1863;-65
2021/08/29 00:54:06;;;;;;;;;;;;;;;11.82;84.93;97019.19;30001;983;1871;-66
2021/08/29 00:54:37;;;;;;;;;;;;;;;11.82;84.53;97016.47;30001;983;1879;-64
2021/08/29 00:55:10;;;;;;;;;;;;;;;11.82;84.60;97014.56;30001;983;1857;-66
2021/08/29 00:55:41;;;;;;;;;;;;;;;11.82;84.54;97020.00;30001;987;1875;-65
2021/08/29 00:56:12;;;;;;;;;;;;;;;11.84;84.67;97012.34;30001;983;1875;-64
2021/08/29 00:56:43;;;;;;;;;;;;;;;11.84;84.36;97015.06;30001;983;1880;-68
2021/08/29 00:57:13;;;;;;;;;;;;;;;11.83;84.68;97016.19;30001;983;1858;-65
2021/08/29 00:57:44;;;;;;;;;;;;;;;11.82;85.14;97009.12;30001;983;1858;-65
2021/08/29 00:58:16;;;;;;;;;;;;;;;11.81;85.21;97012.94;30001;982;1875;-63
2021/08/29 00:58:48;;;;;;;;;;;;;;;11.81;85.25;97006.69;30001;986;1880;-66
2021/08/29 00:59:19;;;;;;;;;;;;;;;11.80;84.91;97016.78;30001;982;1876;-66
2021/08/29 00:59:50;;;;;;;;;;;;;;;11.80;85.06;97011.31;30001;982;1880;-66
2021/08/29 01:00:21;;;;;;;;;;;;;;;11.80;85.29;97010.53;30001;982;1876;-65
2021/08/29 01:00:52;;;;;;;;;;;;;;;11.79;85.03;97009.72;30001;982;1880;-61
2021/08/29 01:01:28;;;;;;;;;;;;;;;11.80;85.18;97021.41;30001;982;1876;-66
2021/08/29 01:02:01;;;;;;;;;;;;;;;11.79;85.07;97004.28;30001;983;1879;-66
2021/08/29 01:02:33;;;;;;;;;;;;;;;11.80;85.18;97008.63;30001;983;1857;-66
2021/08/29 01:03:04;;;;;;;;;;;;;;;11.80;84.81;97011.31;30001;983;1875;-64
2021/08/29 01:03:35;;;;;;;;;;;;;;;11.81;84.75;97012.94;30001;983;1875;-64
2021/08/29 01:04:09;;;;;;;;;;;;;;;11.83;84.70;97009.94;30001;983;1880;-66
2021/08/29 01:05:03;;;;;;;;;;;;;;;11.83;84.85;97010.75;30001;983;1858;-66
2021/08/29 01:05:37;;;;;;;;;;;;;;;11.84;84.97;97004.19;30001;983;1871;-66
2021/08/29 01:06:17;;;;;;;;;;;;;;;11.85;84.93;97005.81;30001;982;1875;-63
2021/08/29 01:06:51;;;;;;;;;;;;;;;11.85;84.72;97008.53;30001;982;1880;-65
2021/08/29 01:07:24;;;;;;;;;;;;;;;11.86;84.98;97007.44;30001;982;1876;-66
2021/08/29 01:07:59;;;;;;;;;;;;;;;11.87;84.94;97010.94;30001;982;1880;-65
2021/08/29 01:08:34;;;;;;;;;;;;;;;11.86;84.70;97010.16;30001;983;1857;-64
2021/08/29 01:09:10;;;;;;;;;;;;;;;11.85;84.93;97008.53;30001;983;1875;-65
2021/08/29 01:09:44;;;;;;;;;;;;;;;11.85;84.92;97003.09;30001;983;1857;-65
2021/08/29 01:10:18;;;;;;;;;;;;;;;11.85;84.91;97008.53;30001;983;1875;-64
2021/08/29 01:11:02;;;;;;;;;;;;;;;11.85;85.75;97008.53;30001;983;1875;-66
2021/08/29 01:11:33;;;;;;;;;;;;;;;11.85;85.55;97007.72;30001;983;1879;-64
2021/08/29 01:12:06;;;;;;;;;;;;;;;11.83;85.57;97010.75;30001;983;1875;-66
2021/08/29 01:12:39;;;;;;;;;;;;;;;11.84;85.51;97006.91;30001;983;1880;-64
2021/08/29 01:13:15;;;;;;;;;;;;;;;11.83;85.49;97005.31;30001;983;1858;-65
2021/08/29 01:13:47;;;;;;;;;;;;;;;11.82;85.40;97008.31;30001;982;1875;-64
2021/08/29 01:14:23;;;;;;;;;;;;;;;11.81;85.54;97012.94;30001;982;1876;-65
2021/08/29 01:14:55;;;;;;;;;;;;;;;11.81;85.43;97007.50;30001;982;1880;-65
2021/08/29 01:15:28;;;;;;;;;;;;;;;11.82;85.73;97002.88;30001;982;1875;-65
2021/08/29 01:16:02;;;;;;;;;;;;;;;11.82;85.46;97000.97;30001;983;1879;-65
2021/08/29 01:16:34;;;;;;;;;;;;;;;11.82;85.57;97002.88;30001;983;1857;-66
2021/08/29 01:17:05;;;;;;;;;;;;;;;11.81;85.65;97007.50;30001;983;1875;-66
2021/08/29 01:17:36;;;;;;;;;;;;;;;11.83;85.80;97013.47;30001;983;1875;-64
2021/08/29 01:18:08;;;;;;;;;;;;;;;11.82;85.53;97003.69;30001;983;1879;-65
2021/08/29 01:18:40;;;;;;;;;;;;;;;11.83;85.75;97001.78;30001;983;1875;-66
2021/08/29 01:19:17;;;;;;;;;;;;;;;11.82;85.62;97003.69;30001;983;1880;-66
2021/08/29 01:20:06;;;;;;;;;;;;;;;11.82;85.58;97000.16;30001;983;1875;-67
2021/08/29 01:20:44;;;;;;;;;;;;;;;11.82;85.79;97003.69;30001;983;1871;-65
2021/08/29 01:21:24;;;;;;;;;;;;;;;11.81;86.00;97007.50;30001;982;1875;-66
2021/08/29 01:21:55;;;;;;;;;;;;;;;11.81;85.84;97003.97;30001;982;1862;-65
2021/08/29 01:22:26;;;;;;;;;;;;;;;11.80;86.28;97000.47;30001;982;1854;-65
2021/08/29 01:22:58;;;;;;;;;;;;;;;11.78;86.30;97002.69;30001;982;1880;-66
2021/08/29 01:23:30;;;;;;;;;;;;;;;11.77;86.52;97006.50;30001;983;1875;-67
2021/08/29 01:24:05;;;;;;;;;;;;;;;11.77;86.32;97006.50;30001;983;1879;-66
2021/08/29 01:24:38;;;;;;;;;;;;;;;11.76;86.39;97004.87;30001;983;1875;-66
2021/08/29 01:25:11;;;;;;;;;;;;;;;11.76;86.44;97002.16;30001;983;1879;-66
2021/08/29 01:25:46;;;;;;;;;;;;;;;11.75;86.56;97008.69;30001;983;1875;-63
2021/08/29 01:26:35;;;;;;;;;;;;;;;11.74;86.61;97001.62;30001;983;1862;-66
2021/08/29 01:27:35;;;;;;;;;;;;;;;11.74;87.26;97004.34;30001;983;1862;-66
2021/08/29 01:28:13;;;;;;;;;;;;;;;11.72;87.54;97009.28;30001;982;1858;-66
2021/08/29 01:29:05;;;;;;;;;;;;;;;11.71;87.58;96996.78;30001;982;1871;-67
2021/08/29 01:29:36;;;;;;;;;;;;;;;11.69;87.71;97001.72;30001;982;1876;-66
2021/08/29 01:30:09;;;;;;;;;;;;;;;11.68;87.80;97000.91;30001;982;1875;-66
2021/08/29 01:30:41;;;;;;;;;;;;;;;11.69;87.60;96999.00;30001;982;1880;-65
2021/08/29 01:31:12;;;;;;;;;;;;;;;11.68;87.39;96997.37;30001;983;1875;-66
2021/08/29 01:31:43;;;;;;;;;;;;;;;11.68;87.62;97005.53;30001;983;1862;-67
2021/08/29 01:32:15;;;;;;;;;;;;;;;11.67;88.29;96999.31;30001;983;1870;-66
2021/08/29 01:32:46;;;;;;;;;;;;;;;11.65;88.11;97003.41;30001;983;1879;-64
2021/08/29 01:33:18;;;;;;;;;;;;;;;11.64;88.33;97007.22;30001;983;1875;-65
2021/08/29 01:33:50;;;;;;;;;;;;;;;11.64;87.95;97001.78;30001;983;1879;-65
2021/08/29 01:34:21;;;;;;;;;;;;;;;11.65;88.05;96998.78;30001;983;1857;-66
2021/08/29 01:34:53;;;;;;;;;;;;;;;11.64;87.89;97002.59;30001;983;1875;-65
2021/08/29 01:35:24;;;;;;;;;;;;;;;11.65;88.26;97003.41;30001;982;1875;-66
2021/08/29 01:35:55;;;;;;;;;;;;;;;11.66;88.27;97005.03;30001;982;1880;-66
2021/08/29 01:36:26;;;;;;;;;;;;;;;11.64;88.27;96994.44;30001;982;1846;-58
2021/08/29 01:36:57;;;;;;;;;;;;;;;11.65;88.31;97003.41;30001;982;1880;-59
2021/08/29 01:37:29;;;;;;;;;;;;;;;11.64;88.46;96993.66;30001;982;1858;-67
2021/08/29 01:38:01;;;;;;;;;;;;;;;11.63;88.24;96995.56;30001;982;1875;-66
2021/08/29 01:38:32;;;;;;;;;;;;;;;11.63;88.58;96990.13;30001;983;1875;-66
2021/08/29 01:39:04;;;;;;;;;;;;;;;11.63;88.62;96990.13;30001;983;1879;-66
2021/08/29 01:39:35;;;;;;;;;;;;;;;11.62;88.96;96993.13;30001;983;1875;-65
2021/08/29 01:40:07;;;;;;;;;;;;;;;11.61;89.09;96991.53;30001;983;1879;-65
2021/08/29 01:40:39;;;;;;;;;;;;;;;11.62;89.14;96993.13;30001;983;1857;-66
2021/08/29 01:41:11;;;;;;;;;;;;;;;11.61;88.92;96994.22;30001;983;1875;-65
2021/08/29 01:41:44;;;;;;;;;;;;;;;11.61;88.65;96986.88;30001;983;1876;-66
2021/08/29 01:42:15;;;;;;;;;;;;;;;11.61;88.70;96983.37;30001;983;1862;-66
2021/08/29 01:42:47;;;;;;;;;;;;;;;11.61;88.87;96986.09;30001;982;1853;-66
2021/08/29 01:43:18;;;;;;;;;;;;;;;11.60;88.76;96989.91;30001;982;1879;-65
2021/08/29 01:43:49;;;;;;;;;;;;;;;11.63;88.60;96989.31;30001;982;1875;-66
2021/08/29 01:44:21;;;;;;;;;;;;;;;11.63;88.35;96983.88;30001;982;1880;-67
2021/08/29 01:44:52;;;;;;;;;;;;;;;11.64;88.62;96986.31;30001;982;1875;-67
2021/08/29 01:45:24;;;;;;;;;;;;;;;11.63;88.45;96981.16;30001;982;1880;-66
2021/08/29 01:45:55;;;;;;;;;;;;;;;11.63;88.52;96983.88;30001;982;1875;-68
2021/08/29 01:46:26;;;;;;;;;;;;;;;11.64;88.51;96986.31;30001;983;1879;-66
2021/08/29 01:46:57;;;;;;;;;;;;;;;11.63;88.80;96979.25;30001;983;1875;-65
2021/08/29 01:47:29;;;;;;;;;;;;;;;11.64;88.86;96985.50;30001;983;1879;-66
2021/08/29 01:48:00;;;;;;;;;;;;;;;11.64;89.03;96985.50;30001;983;1857;-66
2021/08/29 01:48:31;;;;;;;;;;;;;;;11.63;89.19;96983.88;30001;983;1875;-65
2021/08/29 01:49:03;;;;;;;;;;;;;;;11.64;89.02;96980.06;30001;983;1875;-65
2021/08/29 01:49:34;;;;;;;;;;;;;;;11.64;88.94;96988.22;30001;983;1879;-65
2021/08/29 01:50:06;;;;;;;;;;;;;;;11.63;88.88;96983.88;30001;983;1875;-66
2021/08/29 01:50:37;;;;;;;;;;;;;;;11.63;89.12;96983.88;30001;982;1880;-67
2021/08/29 01:51:09;;;;;;;;;;;;;;;11.63;89.32;96983.88;30001;982;1858;-58
2021/08/29 01:51:40;;;;;;;;;;;;;;;11.62;89.47;96993.13;30001;982;1876;-67
2021/08/29 01:52:13;;;;;;;;;;;;;;;11.62;89.50;96979.53;30001;982;1875;-67
2021/08/29 01:52:44;;;;;;;;;;;;;;;11.62;89.29;96990.41;30001;983;1861;-65
2021/08/29 01:53:15;;;;;;;;;;;;;;;11.61;89.25;96980.66;30001;985;1870;-66
2021/08/29 01:53:46;;;;;;;;;;;;;;;11.62;88.79;96984.97;30001;983;1879;-66
2021/08/29 01:54:17;;;;;;;;;;;;;;;11.63;88.30;96981.97;30001;983;1875;-65
2021/08/29 01:54:48;;;;;;;;;;;;;;;11.64;87.93;96985.50;30001;983;1862;-68
2021/08/29 01:55:19;;;;;;;;;;;;;;;11.64;87.78;96985.50;30001;972;1891;-65
2021/08/29 01:55:49;;;;;;;;;;;;;;;11.64;88.30;96977.34;30001;983;1879;-67
2021/08/29 01:56:20;;;;;;;;;;;;;;;11.65;88.47;96981.66;30001;983;1875;-67
2021/08/29 01:57:00;;;;;;;;;;;;;;;11.64;88.68;96985.50;30001;983;1879;-57
2021/08/29 01:57:32;;;;;;;;;;;;;;;11.64;88.37;96980.06;30001;983;1858;-67
2021/08/29 01:58:02;;;;;;;;;;;;;;;11.63;88.69;96978.44;30001;982;1875;-65
2021/08/29 01:58:33;;;;;;;;;;;;;;;11.62;88.50;96977.63;30001;982;1875;-66
2021/08/29 01:59:04;;;;;;;;;;;;;;;11.63;88.66;96973.81;30001;982;1880;-67
2021/08/29 01:59:35;;;;;;;;;;;;;;;11.62;88.68;96977.63;30001;982;1875;-67
2021/08/29 02:00:07;;;;;;;;;;;;;;;11.63;88.35;96973.00;30001;982;1880;-66
2021/08/29 02:00:45;;;;;;;;;;;;;;;11.62;88.55;96972.19;30001;983;1875;-66
2021/08/29 02:01:16;;;;;;;;;;;;;;;11.62;88.90;96971.38;30001;983;1879;-65
2021/08/29 02:01:47;;;;;;;;;;;;;;;11.61;89.02;96965.16;30001;983;1875;-66
2021/08/29 02:02:19;;;;;;;;;;;;;;;11.60;89.25;96970.88;30001;983;1862;-66
2021/08/29 02:02:49;;;;;;;;;;;;;;;11.59;89.48;96967.34;30001;983;1871;-66
2021/08/29 02:03:20;;;;;;;;;;;;;;;11.58;89.59;96970.38;30001;983;1879;-67
2021/08/29 02:03:51;;;;;;;;;;;;;;;11.59;89.42;96977.41;30001;983;1875;-65
2021/08/29 02:04:23;;;;;;;;;;;;;;;11.58;89.74;96970.38;30001;983;1879;-66
2021/08/29 02:04:54;;;;;;;;;;;;;;;11.59;89.75;96971.97;30001;983;1875;-66
2021/08/29 02:05:25;;;;;;;;;;;;;;;11.57;89.63;96971.47;30001;982;1880;-67
2021/08/29 02:06:21;;;;;;;;;;;;;;;11.57;89.67;96971.47;30001;982;1875;-65
2021/08/29 02:06:56;;;;;;;;;;;;;;;11.56;89.80;96972.56;30001;982;1858;-67
2021/08/29 02:07:36;;;;;;;;;;;;;;;11.56;89.76;96975.28;30001;982;1871;-66
2021/08/29 02:08:07;;;;;;;;;;;;;;;11.55;89.61;96970.97;30001;983;1861;-67
2021/08/29 02:08:40;;;;;;;;;;;;;;;11.55;89.62;96976.41;30001;983;1870;-67
2021/08/29 02:09:12;;;;;;;;;;;;;;;11.53;89.85;96973.16;30001;983;1879;-64
2021/08/29 02:09:47;;;;;;;;;;;;;;;11.54;89.46;96974.78;30001;983;1875;-65
2021/08/29 02:10:22;;;;;;;;;;;;;;;11.54;89.52;96970.16;30001;983;1879;-66
2021/08/29 02:10:56;;;;;;;;;;;;;;;11.55;89.46;96965.53;30001;983;1875;-65
2021/08/29 02:11:33;;;;;;;;;;;;;;;11.57;88.93;96974.19;30001;983;1862;-66
2021/08/29 02:12:04;;;;;;;;;;;;;;;11.55;88.65;96966.34;30001;982;1871;-65
2021/08/29 02:12:43;;;;;;;;;;;;;;;11.56;88.59;96972.56;30001;982;1879;-65
2021/08/29 02:13:15;;;;;;;;;;;;;;;11.57;88.69;96968.75;30001;982;1875;-65
2021/08/29 02:13:46;;;;;;;;;;;;;;;11.59;88.28;96961.13;30001;982;1862;-67
2021/08/29 02:14:20;;;;;;;;;;;;;;;11.60;87.99;96968.16;30001;982;1871;-65
2021/08/29 02:15:02;;;;;;;;;;;;;;;11.59;88.30;96971.97;30001;982;1880;-66
2021/08/29 02:15:34;;;;;;;;;;;;;;;11.59;88.18;96963.81;30001;983;1857;-65
2021/08/29 02:16:08;;;;;;;;;;;;;;;11.59;88.19;96969.25;30001;983;1875;-65
2021/08/29 02:16:40;;;;;;;;;;;;;;;11.60;88.65;96973.59;30001;983;1875;-67
2021/08/29 02:17:12;;;;;;;;;;;;;;;11.59;88.55;96971.97;30001;983;1879;-65
2021/08/29 02:17:43;;;;;;;;;;;;;;;11.57;88.69;96968.75;30001;983;1875;-67
2021/08/29 02:18:15;;;;;;;;;;;;;;;11.57;88.23;96968.75;30001;983;1879;-65
2021/08/29 02:18:47;;;;;;;;;;;;;;;11.57;88.23;96963.31;30001;983;1875;-66
2021/08/29 02:19:22;;;;;;;;;;;;;;;11.58;88.26;96964.94;30001;983;1879;-65
2021/08/29 02:19:54;;;;;;;;;;;;;;;11.57;88.54;96968.75;30001;982;1875;-65
2021/08/29 02:20:26;;;;;;;;;;;;;;;11.57;88.08;96976.91;30001;982;1862;-67
2021/08/29 02:20:58;;;;;;;;;;;;;;;11.55;88.67;96969.06;30001;982;1871;-63
2021/08/29 02:21:29;;;;;;;;;;;;;;;11.55;88.45;96965.53;30001;982;1880;-66
2021/08/29 02:22:01;;;;;;;;;;;;;;;11.55;88.06;96965.53;30001;982;1876;-65
2021/08/29 02:22:33;;;;;;;;;;;;;;;11.61;87.75;96969.78;30001;982;1880;-65
2021/08/29 02:23:04;;;;;;;;;;;;;;;11.63;87.44;96967.56;30001;983;1857;-66
2021/08/29 02:23:37;;;;;;;;;;;;;;;11.62;87.32;96971.38;30001;983;1875;-65
2021/08/29 02:24:09;;;;;;;;;;;;;;;11.65;87.07;96965.38;30001;983;1875;-65
2021/08/29 02:24:42;;;;;;;;;;;;;;;11.64;86.75;96961.03;30001;983;1879;-64
2021/08/29 02:25:12;;;;;;;;;;;;;;;11.61;86.96;96958.91;30001;983;1875;-67
2021/08/29 02:25:47;;;;;;;;;;;;;;;11.61;86.80;96958.91;30001;983;1880;-66
2021/08/29 02:26:21;;;;;;;;;;;;;;;11.62;87.02;96960.53;30001;983;1875;-66
2021/08/29 02:26:53;;;;;;;;;;;;;;;11.62;86.91;96961.31;30001;983;1880;-65
2021/08/29 02:27:24;;;;;;;;;;;;;;;11.62;86.83;96958.59;30001;982;1875;-65
2021/08/29 02:27:55;;;;;;;;;;;;;;;11.61;87.07;96957.00;30001;982;1862;-65
2021/08/29 02:28:26;;;;;;;;;;;;;;;11.61;87.01;96962.44;30001;982;1871;-67
2021/08/29 02:28:57;;;;;;;;;;;;;;;11.60;86.79;96962.72;30001;982;1880;-66
2021/08/29 02:29:28;;;;;;;;;;;;;;;11.60;87.11;96962.72;30001;982;1876;-66
2021/08/29 02:30:00;;;;;;;;;;;;;;;11.59;86.89;96961.13;30001;982;1880;-67
2021/08/29 02:30:31;;;;;;;;;;;;;;;11.58;87.05;96956.78;30001;983;1857;-65
2021/08/29 02:31:02;;;;;;;;;;;;;;;11.58;87.50;96959.50;30001;983;1875;-66
2021/08/29 02:31:34;;;;;;;;;;;;;;;11.58;87.54;96964.94;30001;983;1875;-66
2021/08/29 02:32:08;;;;;;;;;;;;;;;11.57;87.97;96960.59;30001;983;1879;-68
2021/08/29 02:32:40;;;;;;;;;;;;;;;11.56;88.07;96959.00;30001;983;1875;-68
2021/08/29 02:33:11;;;;;;;;;;;;;;;11.56;88.48;96967.13;30001;983;1880;-66
2021/08/29 02:33:42;;;;;;;;;;;;;;;11.54;88.37;96958.47;30001;983;1875;-68
2021/08/29 02:34:13;;;;;;;;;;;;;;;11.53;88.97;96962.28;30001;975;1881;-68
2021/08/29 02:34:44;;;;;;;;;;;;;;;11.51;88.96;96953.63;30001;982;1871;-66
2021/08/29 02:35:15;;;;;;;;;;;;;;;11.51;88.88;96954.44;30001;982;1862;-68
2021/08/29 02:35:46;;;;;;;;;;;;;;;11.52;88.57;96956.06;30001;982;1871;-66
2021/08/29 02:36:18;;;;;;;;;;;;;;;11.53;88.30;96959.56;30001;982;1880;-69
2021/08/29 02:36:49;;;;;;;;;;;;;;;11.53;88.52;96962.28;30001;982;1876;-66
2021/08/29 02:37:20;;;;;;;;;;;;;;;11.52;89.09;96960.69;30001;983;1879;-68
2021/08/29 02:37:51;;;;;;;;;;;;;;;11.53;89.26;96962.28;30001;983;1857;-67
2021/08/29 02:38:23;;;;;;;;;;;;;;;11.51;88.85;96959.06;30001;983;1875;-68
2021/08/29 02:38:54;;;;;;;;;;;;;;;11.50;88.92;96962.88;30001;983;1875;-67
2021/08/29 02:39:26;;;;;;;;;;;;;;;11.50;88.74;96963.69;30001;983;1862;-67
2021/08/29 02:39:58;;;;;;;;;;;;;;;11.50;88.98;96960.97;30001;983;1871;-56
2021/08/29 02:40:31;;;;;;;;;;;;;;;11.51;88.80;96964.50;30001;983;1880;-69
2021/08/29 02:41:04;;;;;;;;;;;;;;;11.51;88.90;96959.06;30001;983;1875;-68
2021/08/29 02:41:36;;;;;;;;;;;;;;;11.51;88.47;96959.06;30001;983;1880;-67
2021/08/29 02:42:07;;;;;;;;;;;;;;;11.50;88.95;96958.25;30001;983;1875;-68
2021/08/29 02:42:40;;;;;;;;;;;;;;;11.49;88.91;96962.06;30001;982;1880;-67
2021/08/29 02:43:12;;;;;;;;;;;;;;;11.49;88.98;96964.78;30001;982;1876;-67
2021/08/29 02:43:44;;;;;;;;;;;;;;;11.50;88.75;96963.69;30001;982;1862;-69
2021/08/29 02:44:16;;;;;;;;;;;;;;;11.50;88.63;96962.88;30001;982;1871;-70
2021/08/29 02:44:47;;;;;;;;;;;;;;;11.50;88.77;96962.88;30001;983;1879;-68
2021/08/29 02:45:18;;;;;;;;;;;;;;;11.50;89.16;96965.59;30001;983;1875;-70
2021/08/29 02:45:50;;;;;;;;;;;;;;;11.49;89.49;96964.78;30001;983;1862;-69
2021/08/29 02:46:22;;;;;;;;;;;;;;;11.49;89.26;96970.22;30001;983;1871;-70
2021/08/29 02:46:53;;;;;;;;;;;;;;;11.48;89.43;96965.09;30001;983;1879;-54
2021/08/29 02:47:24;;;;;;;;;;;;;;;11.47;89.24;96963.47;30001;983;1875;-68
2021/08/29 02:47:55;;;;;;;;;;;;;;;11.46;89.37;96961.84;30001;983;1816;-68
2021/08/29 02:48:26;;;;;;;;;;;;;;;11.45;89.39;96965.69;30001;983;1875;-69
2021/08/29 02:48:57;;;;;;;;;;;;;;;11.45;89.17;96965.69;30001;983;1880;-69
2021/08/29 02:49:28;;;;;;;;;;;;;;;11.43;89.18;96964.06;30001;983;1875;-71
2021/08/29 02:49:59;;;;;;;;;;;;;;;11.44;89.17;96954.00;30001;982;1862;-71
2021/08/29 02:50:31;;;;;;;;;;;;;;;11.45;89.36;96965.69;30001;982;1871;-69
2021/08/29 02:51:02;;;;;;;;;;;;;;;11.43;89.10;96964.06;30001;982;1862;-70
2021/08/29 02:51:33;;;;;;;;;;;;;;;11.43;89.54;96964.06;30001;982;1871;-69
2021/08/29 02:52:05;;;;;;;;;;;;;;;11.43;90.26;96967.91;30001;982;1880;-55
2021/08/29 02:52:39;;;;;;;;;;;;;;;11.40;89.92;96961.97;30001;983;1875;-70
2021/08/29 02:53:10;;;;;;;;;;;;;;;11.39;89.91;96960.34;30001;983;1879;-70